Terminal Aerodrome Forecast
Issued by NWS

Home | Current Version | Previous Version | Text Only | Print | Product List | Glossary On
Versions: 1 2 3 4 5 6 7 8 9 10 11 12 13
000
FTUS45 KLKN 242300
TAFTPH
TAF
KTPH 242320Z 2500/2524 18013G23KT P6SM SKC
     FM250200 VRB06KT P6SM SKC
     FM251900 18022G32KT P6SM SKC=

USA.gov is the U.S. government's official web portal to all federal, state and local government web resources and services.